createdAt,value
2022-08-30T00:01:04.950Z,8.40
2022-08-30T00:06:00.930Z,7.28
2022-08-30T00:08:28.451Z,7.68
2022-08-30T00:10:55.508Z,8.35
2022-08-30T00:13:23.286Z,9.00
2022-08-30T00:15:50.371Z,10.02
2022-08-30T00:18:19.652Z,8.70
2022-08-30T00:20:49.644Z,6.95
2022-08-30T00:23:18.681Z,7.40
2022-08-30T00:25:45.735Z,10.60
2022-08-30T00:28:13.211Z,8.55
2022-08-30T00:30:41.626Z,11.35
2022-08-30T00:33:08.802Z,11.95
2022-08-30T00:35:35.507Z,8.88
2022-08-30T00:38:02.475Z,8.43
2022-08-30T00:40:30.693Z,7.93
2022-08-30T00:42:59.919Z,10.82
2022-08-30T00:45:36.890Z,10.40
2022-08-30T00:48:04.999Z,13.00
2022-08-30T00:50:38.152Z,9.23
2022-08-30T00:53:09.040Z,9.82
2022-08-30T00:55:38.936Z,10.27
2022-08-30T00:58:13.427Z,11.45
2022-08-30T01:00:40.455Z,9.98
2022-08-30T01:03:09.121Z,9.52
2022-08-30T01:05:38.568Z,9.38
2022-08-30T01:08:05.919Z,12.25
2022-08-30T01:10:34.792Z,11.88
2022-08-30T01:13:01.994Z,15.70
2022-08-30T01:15:30.174Z,9.85
2022-08-30T01:17:57.119Z,11.27
2022-08-30T01:20:33.481Z,13.95
2022-08-30T01:23:09.517Z,9.50
2022-08-30T01:25:37.403Z,13.23
2022-08-30T01:28:07.944Z,12.85
2022-08-30T01:30:38.939Z,12.90
2022-08-30T01:33:07.706Z,8.93
2022-08-30T01:35:49.747Z,11.60
2022-08-30T01:38:18.279Z,13.50
2022-08-30T01:40:45.094Z,12.00
2022-08-30T01:43:13.669Z,12.27
2022-08-30T01:45:40.720Z,11.70
2022-08-30T01:48:08.273Z,11.57
2022-08-30T01:50:35.391Z,13.40
2022-08-30T01:53:04.384Z,11.07
2022-08-30T01:55:31.289Z,11.38
2022-08-30T01:57:58.072Z,11.00
2022-08-30T02:00:24.847Z,13.38
2022-08-30T02:02:51.726Z,12.65
2022-08-30T02:05:18.514Z,12.80
2022-08-30T02:07:45.199Z,11.77
2022-08-30T02:12:38.600Z,10.93
2022-08-30T02:17:33.111Z,11.25
2022-08-30T02:22:26.426Z,13.70
2022-08-30T02:24:53.083Z,12.40
2022-08-30T02:29:46.448Z,11.98
2022-08-30T02:32:13.177Z,11.65
2022-08-30T02:34:39.875Z,15.60
2022-08-30T02:39:33.216Z,13.43
2022-08-30T02:44:26.449Z,12.52
2022-08-30T02:49:35.193Z,13.45
2022-08-30T02:52:04.652Z,13.48
2022-08-30T02:54:33.094Z,14.50
2022-08-30T02:57:04.591Z,13.43
2022-08-30T02:59:32.041Z,16.23
2022-08-30T03:01:58.827Z,11.98
2022-08-30T03:04:26.957Z,13.57
2022-08-30T03:06:54.790Z,14.50
2022-08-30T03:09:22.166Z,14.10
2022-08-30T03:11:48.827Z,14.70
2022-08-30T03:16:42.102Z,14.13
2022-08-30T03:21:37.549Z,14.75
2022-08-30T03:24:04.338Z,14.63
2022-08-30T03:26:30.979Z,12.82
2022-08-30T03:31:24.291Z,14.05
2022-08-30T03:33:50.984Z,12.60
2022-08-30T03:38:44.223Z,14.07
2022-08-30T03:43:38.114Z,12.77
2022-08-30T03:48:31.879Z,11.45
2022-08-30T03:50:58.579Z,13.45
2022-08-30T03:53:27.116Z,12.05
2022-08-30T03:55:54.896Z,14.32
2022-08-30T03:58:22.234Z,13.25
2022-08-30T04:00:49.133Z,13.10
2022-08-30T04:03:16.089Z,13.68
2022-08-30T04:05:42.866Z,11.35
2022-08-30T04:10:36.589Z,11.88
2022-08-30T04:13:03.464Z,13.77
2022-08-30T04:15:30.129Z,14.90
2022-08-30T04:20:23.400Z,11.27
2022-08-30T04:22:51.707Z,11.90
2022-08-30T04:27:46.465Z,12.57
2022-08-30T04:30:14.922Z,14.43
2022-08-30T04:32:42.687Z,14.52
2022-08-30T04:35:10.327Z,15.32
2022-08-30T04:37:38.376Z,12.70
2022-08-30T04:40:06.278Z,12.13
2022-08-30T04:42:35.103Z,12.82
2022-08-30T04:45:05.710Z,13.57
2022-08-30T04:47:32.576Z,13.15
2022-08-30T04:49:59.695Z,12.15
2022-08-30T04:52:26.718Z,14.10
2022-08-30T04:54:57.601Z,14.73
2022-08-30T04:57:25.553Z,12.88
2022-08-30T04:59:52.223Z,12.82
2022-08-30T05:02:19.444Z,14.55
2022-08-30T05:05:04.849Z,13.48
2022-08-30T05:07:32.379Z,15.98
2022-08-30T05:09:59.614Z,12.68
2022-08-30T05:12:27.026Z,19.00
2022-08-30T05:14:53.754Z,15.77
2022-08-30T05:19:47.098Z,13.57
2022-08-30T05:24:40.818Z,12.75
2022-08-30T05:27:07.548Z,15.10
2022-08-30T05:32:00.843Z,13.00
2022-08-30T05:36:56.422Z,12.55
2022-08-30T05:39:23.071Z,11.60
2022-08-30T05:44:17.179Z,12.07
2022-08-30T05:49:13.053Z,12.73
2022-08-30T05:51:43.357Z,12.23
2022-08-30T05:54:11.813Z,13.38
2022-08-30T05:56:41.287Z,12.02
2022-08-30T05:59:08.935Z,10.77
2022-08-30T06:01:39.747Z,11.70
2022-08-30T06:04:08.763Z,12.55
2022-08-30T06:06:37.287Z,11.13
2022-08-30T06:09:05.943Z,11.23
2022-08-30T06:11:33.435Z,10.75
2022-08-30T06:14:00.492Z,10.68
2022-08-30T06:16:28.695Z,14.50
2022-08-30T06:18:57.263Z,12.18
2022-08-30T06:21:34.120Z,12.25
2022-08-30T06:24:01.753Z,10.27
2022-08-30T06:26:29.045Z,12.00
2022-08-30T06:28:56.762Z,9.27
2022-08-30T06:31:25.714Z,10.77
2022-08-30T06:33:52.625Z,8.80
2022-08-30T06:36:22.359Z,11.98
2022-08-30T06:38:55.023Z,12.63
2022-08-30T06:41:25.294Z,11.02
2022-08-30T06:43:52.546Z,12.70
2022-08-30T06:46:27.952Z,9.25
2022-08-30T06:48:56.233Z,9.32
2022-08-30T06:51:26.320Z,9.65
2022-08-30T06:53:53.843Z,9.38
2022-08-30T06:56:22.379Z,10.15
2022-08-30T06:58:50.251Z,11.57
2022-08-30T07:01:20.097Z,6.97
2022-08-30T07:03:46.827Z,9.90
2022-08-30T07:08:40.711Z,8.20
2022-08-30T07:11:07.671Z,8.00
2022-08-30T07:13:36.062Z,7.32
2022-08-30T07:16:09.870Z,6.93
2022-08-30T07:18:51.740Z,4.57
2022-08-30T07:21:21.051Z,5.45
2022-08-30T07:23:53.650Z,8.13
2022-08-30T07:26:30.410Z,5.65
2022-08-30T07:28:58.286Z,8.23
2022-08-30T07:31:25.622Z,8.23
2022-08-30T07:33:52.764Z,6.90
2022-08-30T07:36:21.710Z,4.72
2022-08-30T07:38:50.712Z,4.72
2022-08-30T07:41:25.451Z,3.50
2022-08-30T07:43:52.895Z,4.25
2022-08-30T07:46:19.906Z,4.38
2022-08-30T07:48:46.982Z,8.55
2022-08-30T07:51:20.148Z,3.30
2022-08-30T07:53:46.833Z,3.80
2022-08-30T07:56:13.808Z,5.85
2022-08-30T07:58:40.678Z,2.20
2022-08-30T08:01:10.210Z,5.75
2022-08-30T08:03:39.792Z,2.35
2022-08-30T08:06:08.789Z,3.05
2022-08-30T08:08:36.623Z,4.57
2022-08-30T08:11:16.317Z,2.38
2022-08-30T08:13:47.266Z,4.28
2022-08-30T08:16:22.327Z,3.58
2022-08-30T08:18:49.506Z,5.07
2022-08-30T08:21:16.519Z,3.38
2022-08-30T08:23:43.316Z,2.58
2022-08-30T08:26:09.969Z,3.22
2022-08-30T08:28:36.647Z,4.80
2022-08-30T08:31:04.250Z,3.35
2022-08-30T08:33:30.990Z,3.97
2022-08-30T08:35:57.661Z,3.97
2022-08-30T08:38:24.295Z,2.30
2022-08-30T08:41:07.867Z,5.85
2022-08-30T08:43:37.195Z,3.45
2022-08-30T08:46:09.970Z,1.80
2022-08-30T08:48:58.926Z,2.92
2022-08-30T08:51:50.490Z,3.65
2022-08-30T08:54:42.314Z,3.40
2022-08-30T08:59:40.569Z,2.97
2022-08-30T09:02:22.475Z,3.53
2022-08-30T09:04:51.038Z,3.75
2022-08-30T09:07:23.125Z,2.42
2022-08-30T09:09:50.151Z,3.85
2022-08-30T09:12:17.356Z,3.28
2022-08-30T09:14:49.488Z,3.90
2022-08-30T09:17:19.674Z,5.25
2022-08-30T09:19:58.768Z,4.20
2022-08-30T09:22:35.083Z,4.50
2022-08-30T09:25:19.621Z,4.93
2022-08-30T09:27:48.542Z,3.50
2022-08-30T09:30:22.486Z,3.03
2022-08-30T09:33:00.819Z,5.78
2022-08-30T09:35:41.574Z,5.60
2022-08-30T09:38:17.769Z,5.28
2022-08-30T09:40:48.652Z,5.55
2022-08-30T09:43:26.203Z,7.43
2022-08-30T09:46:01.160Z,5.40
2022-08-30T09:51:11.637Z,3.53
2022-08-30T09:54:01.247Z,5.32
2022-08-30T09:57:34.021Z,3.08
2022-08-30T10:00:21.667Z,4.22
2022-08-30T10:03:26.143Z,2.90
2022-08-30T10:06:24.871Z,3.75
2022-08-30T10:09:03.564Z,4.00
2022-08-30T10:11:49.961Z,4.15
2022-08-30T10:14:34.592Z,5.70
2022-08-30T10:17:38.861Z,2.78
2022-08-30T10:20:11.976Z,3.65
2022-08-30T10:22:53.057Z,3.25
2022-08-30T10:25:32.020Z,5.15
2022-08-30T10:28:19.652Z,5.28
2022-08-30T10:30:56.013Z,5.82
2022-08-30T10:33:40.039Z,3.55
2022-08-30T10:36:11.356Z,5.75
2022-08-30T10:38:41.252Z,3.00
2022-08-30T10:41:22.395Z,4.45
2022-08-30T10:44:15.263Z,6.63
2022-08-30T10:47:23.273Z,8.57
2022-08-30T10:49:57.401Z,5.68
2022-08-30T10:52:42.171Z,4.88
2022-08-30T10:55:17.434Z,5.68
2022-08-30T10:57:45.230Z,4.38
2022-08-30T11:00:16.734Z,2.60
2022-08-30T11:02:52.493Z,3.75
2022-08-30T11:05:54.686Z,3.20
2022-08-30T11:08:42.959Z,4.40
2022-08-30T11:11:40.867Z,3.83
2022-08-30T11:16:41.255Z,5.95
2022-08-30T11:22:26.795Z,4.97
2022-08-30T11:25:10.027Z,4.00
2022-08-30T11:27:40.429Z,5.10
2022-08-30T11:30:26.470Z,3.97
2022-08-30T11:33:22.504Z,4.68
2022-08-30T11:35:54.948Z,3.50
2022-08-30T11:38:27.017Z,5.25
2022-08-30T11:40:56.314Z,4.15
2022-08-30T11:43:36.867Z,7.78
2022-08-30T11:46:14.678Z,3.78
2022-08-30T11:49:12.928Z,7.72
2022-08-30T11:52:26.373Z,6.75
2022-08-30T11:55:13.498Z,6.88
2022-08-30T11:58:04.756Z,7.57
2022-08-30T12:00:39.564Z,5.53
2022-08-30T12:03:19.649Z,5.80
2022-08-30T12:05:57.380Z,5.53
2022-08-30T12:08:33.404Z,10.30
2022-08-30T12:11:08.849Z,6.82
2022-08-30T12:13:42.794Z,7.55
2022-08-30T12:17:01.958Z,6.03
2022-08-30T12:19:30.409Z,8.02
2022-08-30T12:22:05.412Z,6.25
2022-08-30T12:24:36.608Z,14.32
2022-08-30T12:27:21.892Z,25.80
2022-08-30T12:30:06.231Z,10.50
2022-08-30T12:32:35.357Z,9.55
2022-08-30T12:35:05.156Z,5.05
2022-08-30T12:37:38.044Z,4.00
2022-08-30T12:40:10.664Z,7.47
2022-08-30T12:42:49.963Z,9.02
2022-08-30T12:45:20.875Z,8.20
2022-08-30T12:47:53.801Z,8.20
2022-08-30T12:50:31.882Z,12.20
2022-08-30T12:53:09.356Z,9.23
2022-08-30T12:55:59.239Z,8.05
2022-08-30T12:58:53.843Z,8.00
2022-08-30T13:01:32.527Z,9.25
2022-08-30T13:04:14.714Z,4.97
2022-08-30T13:06:42.399Z,7.00
2022-08-30T13:09:10.755Z,7.32
2022-08-30T13:11:37.869Z,6.78
2022-08-30T13:14:29.589Z,4.75
2022-08-30T13:17:19.062Z,5.82
2022-08-30T13:20:07.047Z,5.60
2022-08-30T13:22:42.150Z,6.07
2022-08-30T13:25:10.953Z,6.10
2022-08-30T13:27:38.899Z,7.53
2022-08-30T13:30:13.544Z,3.17
2022-08-30T13:32:42.175Z,4.45
2022-08-30T13:35:10.715Z,7.30
2022-08-30T13:37:49.622Z,4.45
2022-08-30T13:40:18.563Z,7.00
2022-08-30T13:42:45.454Z,4.40
2022-08-30T13:48:01.983Z,5.45
2022-08-30T13:50:28.720Z,5.82
2022-08-30T13:52:57.457Z,4.80
2022-08-30T13:55:24.179Z,7.38
2022-08-30T13:57:54.825Z,5.75
2022-08-30T14:00:23.601Z,4.97
2022-08-30T14:02:55.726Z,5.45
2022-08-30T14:11:12.998Z,10.05
2022-08-30T14:16:31.265Z,8.20
2022-08-30T14:19:00.039Z,4.80
2022-08-30T14:21:27.492Z,7.90
2022-08-30T14:23:58.722Z,7.97
2022-08-30T14:26:33.700Z,6.55
2022-08-30T14:29:05.944Z,5.00
2022-08-30T14:31:37.049Z,6.22
2022-08-30T14:34:05.126Z,4.63
2022-08-30T14:36:33.905Z,5.80
2022-08-30T14:39:01.146Z,5.72
2022-08-30T14:41:27.872Z,4.35
2022-08-30T14:43:54.571Z,4.15
2022-08-30T14:46:24.543Z,5.13
2022-08-30T14:48:51.342Z,6.53
2022-08-30T14:51:20.137Z,6.15
2022-08-30T14:53:47.211Z,8.65
2022-08-30T14:56:17.215Z,5.47
2022-08-30T15:01:14.200Z,5.15
2022-08-30T15:03:41.415Z,5.10
2022-08-30T15:06:09.279Z,6.82
2022-08-30T15:08:37.167Z,3.15
2022-08-30T15:11:09.443Z,3.75
2022-08-30T15:13:36.671Z,3.38
2022-08-30T15:16:11.606Z,5.75
2022-08-30T15:18:38.399Z,4.38
2022-08-30T15:21:05.391Z,5.15
2022-08-30T15:23:33.618Z,4.63
2022-08-30T15:26:00.471Z,4.13
2022-08-30T15:28:27.214Z,3.60
2022-08-30T15:30:55.392Z,4.60
2022-08-30T15:33:25.383Z,3.03
2022-08-30T15:35:52.559Z,4.05
2022-08-30T15:38:21.875Z,3.92
2022-08-30T15:40:49.944Z,10.75
2022-08-30T15:43:17.115Z,4.47
2022-08-30T15:45:44.618Z,6.93
2022-08-30T15:48:12.286Z,4.88
2022-08-30T15:50:39.031Z,4.70
2022-08-30T15:53:07.497Z,4.93
2022-08-30T15:55:34.272Z,5.32
2022-08-30T15:58:01.028Z,2.35
2022-08-30T16:00:27.953Z,5.00
2022-08-30T16:02:54.687Z,5.90
2022-08-30T16:05:23.629Z,4.32
2022-08-30T16:07:52.199Z,3.90
2022-08-30T16:10:19.395Z,4.38
2022-08-30T16:12:46.113Z,4.00
2022-08-30T16:15:12.907Z,2.33
2022-08-30T16:17:39.606Z,5.40
2022-08-30T16:20:07.804Z,6.60
2022-08-30T16:22:35.610Z,4.70
2022-08-30T16:25:04.589Z,4.75
2022-08-30T16:27:33.967Z,4.38
2022-08-30T16:30:01.417Z,2.90
2022-08-30T16:32:28.060Z,5.82
2022-08-30T16:34:55.507Z,4.07
2022-08-30T16:37:22.239Z,3.78
2022-08-30T16:39:49.033Z,2.53
2022-08-30T16:42:20.936Z,3.72
2022-08-30T16:44:49.775Z,6.40
2022-08-30T16:47:17.212Z,3.72
2022-08-30T16:49:44.510Z,4.05
2022-08-30T16:52:11.546Z,3.75
2022-08-30T16:54:38.506Z,3.75
2022-08-30T16:57:06.482Z,4.18
2022-08-30T16:59:33.590Z,6.93
2022-08-30T17:02:01.003Z,5.07
2022-08-30T17:04:27.757Z,3.03
2022-08-30T17:06:54.433Z,3.88
2022-08-30T17:09:22.283Z,2.58
2022-08-30T17:11:49.552Z,3.95
2022-08-30T17:14:20.153Z,3.83
2022-08-30T17:16:49.782Z,3.47
2022-08-30T17:19:16.541Z,4.15
2022-08-30T17:21:53.755Z,3.20
2022-08-30T17:24:20.467Z,3.72
2022-08-30T17:26:47.187Z,5.07
2022-08-30T17:29:14.225Z,3.83
2022-08-30T17:31:46.129Z,4.60
2022-08-30T17:34:18.231Z,4.32
2022-08-30T17:36:44.892Z,2.42
2022-08-30T17:39:13.079Z,3.53
2022-08-30T17:41:49.742Z,6.10
2022-08-30T17:44:21.658Z,3.92
2022-08-30T17:46:52.518Z,4.13
2022-08-30T17:49:19.200Z,5.07
2022-08-30T17:51:47.746Z,5.47
2022-08-30T17:54:14.912Z,2.90
2022-08-30T17:56:42.663Z,2.97
2022-08-30T17:59:14.314Z,5.15
2022-08-30T18:01:42.215Z,3.95
2022-08-30T18:04:10.484Z,3.42
2022-08-30T18:06:37.199Z,4.25
2022-08-30T18:09:08.088Z,5.45
2022-08-30T18:11:36.791Z,5.47
2022-08-30T18:14:04.487Z,3.00
2022-08-30T18:16:33.277Z,2.90
2022-08-30T18:19:04.233Z,3.97
2022-08-30T18:21:31.136Z,3.38
2022-08-30T18:23:57.892Z,3.15
2022-08-30T18:26:24.823Z,3.70
2022-08-30T18:28:52.161Z,5.57
2022-08-30T18:31:18.839Z,3.53
2022-08-30T18:33:47.040Z,3.30
2022-08-30T18:36:13.963Z,6.10
2022-08-30T18:38:42.488Z,5.30
2022-08-30T18:41:11.155Z,4.60
2022-08-30T18:43:38.024Z,4.32
2022-08-30T18:46:09.368Z,3.50
2022-08-30T18:48:37.260Z,4.18
2022-08-30T18:51:10.767Z,4.97
2022-08-30T18:53:37.691Z,3.83
2022-08-30T18:56:04.788Z,3.42
2022-08-30T18:58:36.543Z,3.83
2022-08-30T19:01:03.446Z,5.47
2022-08-30T19:03:33.595Z,3.20
2022-08-30T19:06:05.810Z,4.97
2022-08-30T19:08:34.482Z,3.15
2022-08-30T19:11:04.978Z,3.85
2022-08-30T19:13:34.839Z,4.03
2022-08-30T19:16:02.035Z,3.58
2022-08-30T19:18:28.956Z,4.97
2022-08-30T19:20:56.424Z,3.92
2022-08-30T19:23:25.532Z,3.88
2022-08-30T19:25:53.403Z,6.05
2022-08-30T19:28:21.559Z,6.47
2022-08-30T19:30:48.403Z,3.65
2022-08-30T19:33:17.265Z,3.38
2022-08-30T19:35:48.932Z,5.47
2022-08-30T19:38:17.710Z,3.83
2022-08-30T19:40:44.470Z,5.90
2022-08-30T19:43:11.531Z,5.55
2022-08-30T19:45:38.523Z,3.80
2022-08-30T19:48:05.559Z,2.28
2022-08-30T19:50:32.815Z,5.13
2022-08-30T19:52:59.826Z,3.17
2022-08-30T19:55:28.776Z,4.93
2022-08-30T19:57:57.376Z,3.15
2022-08-30T20:00:24.383Z,4.85
2022-08-30T20:02:51.420Z,4.50
2022-08-30T20:05:18.842Z,4.03
2022-08-30T20:07:45.711Z,2.88
2022-08-30T20:10:15.087Z,4.53
2022-08-30T20:12:47.543Z,4.53
2022-08-30T20:15:17.248Z,3.17
2022-08-30T20:20:36.213Z,4.47
2022-08-30T20:23:04.464Z,5.20
2022-08-30T20:25:31.680Z,5.50
2022-08-30T20:27:59.430Z,3.90
2022-08-30T20:30:26.123Z,7.35
2022-08-30T20:32:54.343Z,6.68
2022-08-30T20:35:21.210Z,4.13
2022-08-30T20:37:47.871Z,5.57
2022-08-30T20:40:16.164Z,6.20
2022-08-30T20:42:46.612Z,6.28
2022-08-30T20:45:16.428Z,3.90
2022-08-30T20:47:44.006Z,6.60
2022-08-30T20:50:13.812Z,9.70
2022-08-30T20:52:41.531Z,4.45
2022-08-30T20:55:09.912Z,4.47
2022-08-30T20:57:37.106Z,5.30
2022-08-30T21:00:06.796Z,9.82
2022-08-30T21:02:34.198Z,5.78
2022-08-30T21:05:01.939Z,4.85
2022-08-30T21:07:28.648Z,4.65
2022-08-30T21:09:56.643Z,3.80
2022-08-30T21:12:23.767Z,6.55
2022-08-30T21:14:50.472Z,7.15
2022-08-30T21:17:17.854Z,5.38
2022-08-30T21:19:44.610Z,7.15
2022-08-30T21:22:11.598Z,7.28
2022-08-30T21:24:38.401Z,10.18
2022-08-30T21:27:05.159Z,6.47
2022-08-30T21:29:33.154Z,8.27
2022-08-30T21:32:00.381Z,5.85
2022-08-30T21:34:27.099Z,4.18
2022-08-30T21:36:53.842Z,7.38
2022-08-30T21:39:26.410Z,4.53
2022-08-30T21:41:56.837Z,5.57
2022-08-30T21:44:25.385Z,5.82
2022-08-30T21:46:53.237Z,5.68
2022-08-30T21:49:23.094Z,7.25
2022-08-30T21:51:51.375Z,6.05
2022-08-30T21:54:18.612Z,5.45
2022-08-30T21:56:47.253Z,5.43
2022-08-30T21:59:14.873Z,5.53
2022-08-30T22:01:43.053Z,7.05
2022-08-30T22:04:11.552Z,5.25
2022-08-30T22:06:40.447Z,7.30
2022-08-30T22:09:10.226Z,6.47
2022-08-30T22:11:37.464Z,6.95
2022-08-30T22:14:05.895Z,4.13
2022-08-30T22:16:33.097Z,4.53
2022-08-30T22:19:01.271Z,4.97
2022-08-30T22:21:31.281Z,3.75
2022-08-30T22:23:58.768Z,4.78
2022-08-30T22:26:25.946Z,7.40
2022-08-30T22:28:54.283Z,5.82
2022-08-30T22:31:22.671Z,7.50
2022-08-30T22:33:51.227Z,6.03
2022-08-30T22:36:25.127Z,6.95
2022-08-30T22:39:01.110Z,7.15
2022-08-30T22:41:31.277Z,6.85
2022-08-30T22:43:58.715Z,7.63
2022-08-30T22:46:34.312Z,5.75
2022-08-30T22:49:05.987Z,7.45
2022-08-30T22:51:33.565Z,6.22
2022-08-30T22:54:01.125Z,6.43
2022-08-30T22:56:28.543Z,9.43
2022-08-30T22:58:55.643Z,5.13
2022-08-30T23:01:30.862Z,8.63
2022-08-30T23:03:58.663Z,6.18
2022-08-30T23:06:25.658Z,8.35
2022-08-30T23:08:52.646Z,4.55
2022-08-30T23:11:19.595Z,4.85
2022-08-30T23:13:46.641Z,6.10
2022-08-30T23:16:14.451Z,4.38
2022-08-30T23:18:43.153Z,5.10
2022-08-30T23:21:14.323Z,4.35
2022-08-30T23:23:59.803Z,3.40
2022-08-30T23:26:45.285Z,5.75
2022-08-30T23:29:30.896Z,3.67
2022-08-30T23:35:01.232Z,6.18
2022-08-30T23:37:48.535Z,4.90
2022-08-30T23:40:39.031Z,4.30
2022-08-30T23:43:24.400Z,6.68
2022-08-30T23:46:09.983Z,4.25
2022-08-30T23:51:40.739Z,6.53
2022-08-30T23:54:26.250Z,5.78
2022-08-30T23:57:11.581Z,5.20
2022-08-30T23:59:57.052Z,5.93
